Time,TemperatureF,DewpointF,PressureIn,WindDirection,WindDirectionDegrees,WindSpeedMPH,WindSpeedGustMPH,Humidity,HourlyPrecipIn,Conditions,Clouds,dailyrainin,SoftwareType,DateUTC
2013-06-06 00:00:00,83.8,80.9,29.79,SSE,148,3.0,10.0,91,0.00,RA,,0.00,WeatherDisplay:10.37,2013-06-06 06:00:00,
2013-06-06 00:15:00,83.8,80.6,29.79,SSE,156,6.0,10.0,90,0.00,CLR,,0.00,WeatherDisplay:10.37,2013-06-06 06:15:00,
2013-06-06 00:30:00,83.6,80.4,29.79,SSE,158,3.0,7.0,90,0.00,CLR,,0.00,WeatherDisplay:10.37,2013-06-06 06:30:00,
2013-06-06 00:45:00,83.5,80.3,29.79,South,183,6.0,8.0,90,0.00,CLR,,0.00,WeatherDisplay:10.37,2013-06-06 06:45:00,
2013-06-06 01:00:00,83.5,79.9,29.80,SSW,193,5.0,9.0,89,0.00,CLR,,0.00,WeatherDisplay:10.37,2013-06-06 07:00:00,
2013-06-06 01:15:00,83.6,79.7,29.79,SSW,193,6.0,9.0,88,0.00,CLR,,0.00,WeatherDisplay:10.37,2013-06-06 07:15:00,
2013-06-06 01:30:00,83.6,80.0,29.79,SSW,206,5.0,10.0,89,0.00,CLR,,0.00,WeatherDisplay:10.37,2013-06-06 07:30:00,
2013-06-06 01:45:00,83.6,80.0,29.78,SSW,194,6.0,10.0,89,0.00,CLR,,0.00,WeatherDisplay:10.37,2013-06-06 07:45:00,
2013-06-06 02:00:00,83.5,78.9,29.77,SSW,213,6.0,12.0,86,0.00,CLR,,0.00,WeatherDisplay:10.37,2013-06-06 08:00:00,
2013-06-06 02:15:00,83.2,79.6,29.77,WSW,247,6.0,10.0,89,0.00,CLR,,0.00,WeatherDisplay:10.37,2013-06-06 08:15:00,
2013-06-06 02:30:00,82.5,79.2,29.77,West,264,7.0,14.0,90,0.00,CLR,,0.00,WeatherDisplay:10.37,2013-06-06 08:30:00,
2013-06-06 02:45:00,82.2,79.3,29.77,West,261,7.0,15.0,91,0.00,CLR,,0.00,WeatherDisplay:10.37,2013-06-06 08:45:00,
2013-06-06 03:00:00,81.9,79.0,29.76,West,261,9.0,15.0,91,0.00,CLR,,0.00,WeatherDisplay:10.37,2013-06-06 09:00:00,
2013-06-06 03:15:00,81.6,78.4,29.76,West,262,10.0,14.0,90,0.00,CLR,,0.00,WeatherDisplay:10.37,2013-06-06 09:15:00,
2013-06-06 03:30:00,81.5,78.3,29.76,West,272,6.0,14.0,90,0.00,CLR,,0.00,WeatherDisplay:10.37,2013-06-06 09:30:00,
2013-06-06 03:45:00,80.8,78.0,29.77,West,259,12.0,15.0,91,0.00,CLR,,0.00,WeatherDisplay:10.37,2013-06-06 09:45:00,
2013-06-06 04:00:00,80.2,77.3,29.77,West,267,10.0,14.0,91,0.00,CLR,,0.00,WeatherDisplay:10.37,2013-06-06 10:00:00,
2013-06-06 04:15:00,79.9,77.0,29.78,West,281,10.0,14.0,91,0.00,CLR,,0.00,WeatherDisplay:10.37,2013-06-06 10:15:00,
2013-06-06 04:30:00,79.9,77.0,29.78,West,277,9.0,14.0,91,0.00,CLR,,0.00,WeatherDisplay:10.37,2013-06-06 10:30:00,
2013-06-06 04:45:00,80.0,77.1,29.79,West,278,6.0,13.0,91,0.00,CLR,,0.00,WeatherDisplay:10.37,2013-06-06 10:45:00,
2013-06-06 05:00:00,79.8,77.0,29.79,West,279,5.0,13.0,91,0.00,CLR,,0.00,WeatherDisplay:10.37,2013-06-06 11:00:00,
2013-06-06 05:15:00,79.7,76.8,29.79,West,281,7.0,12.0,91,0.00,CLR,,0.00,WeatherDisplay:10.37,2013-06-06 11:15:00,
2013-06-06 05:30:00,79.8,76.6,29.79,West,273,7.0,12.0,90,0.00,CLR,,0.00,WeatherDisplay:10.37,2013-06-06 11:30:00,
2013-06-06 05:45:00,79.8,76.6,29.79,West,263,7.0,12.0,90,0.00,CLR,,0.00,WeatherDisplay:10.37,2013-06-06 11:45:00,
2013-06-06 06:00:00,79.9,76.4,29.79,West,262,6.0,13.0,89,0.00,CLR,,0.00,WeatherDisplay:10.37,2013-06-06 12:00:00,
2013-06-06 06:15:00,80.2,76.3,29.80,West,261,5.0,12.0,88,0.00,CLR,,0.00,WeatherDisplay:10.37,2013-06-06 12:15:00,
2013-06-06 06:30:00,80.3,75.7,29.80,WSW,256,6.0,10.0,86,0.00,CLR,,0.00,WeatherDisplay:10.37,2013-06-06 12:30:00,
2013-06-06 06:45:00,80.5,75.9,29.80,West,262,7.0,10.0,86,0.00,CLR,,0.00,WeatherDisplay:10.37,2013-06-06 12:45:00,
2013-06-06 07:00:00,80.9,76.3,29.80,WSW,252,7.0,12.0,86,0.00,CLR,,0.00,WeatherDisplay:10.37,2013-06-06 13:00:00,
2013-06-06 07:15:00,81.2,76.3,29.81,WSW,256,7.0,12.0,85,0.00,CLR,,0.00,WeatherDisplay:10.37,2013-06-06 13:15:00,
2013-06-06 07:30:00,81.7,76.4,29.81,West,265,7.0,10.0,84,0.00,CLR,,0.00,WeatherDisplay:10.37,2013-06-06 13:30:00,
2013-06-06 07:45:00,81.7,76.7,29.81,WSW,246,5.0,10.0,85,0.00,CLR,,0.00,WeatherDisplay:10.37,2013-06-06 13:45:00,
2013-06-06 08:00:00,83.0,77.3,29.82,WSW,254,3.0,8.0,83,0.00,CLR,,0.00,WeatherDisplay:10.37,2013-06-06 14:00:00,
2013-06-06 08:15:00,84.5,77.3,29.82,West,272,5.0,10.0,79,0.00,CLR,,0.00,WeatherDisplay:10.37,2013-06-06 14:15:00,
2013-06-06 08:30:00,86.0,77.6,29.82,West,276,3.0,9.0,76,0.00,CLR,,0.00,WeatherDisplay:10.37,2013-06-06 14:30:00,
2013-06-06 08:45:00,85.3,77.7,29.83,WNW,299,2.0,9.0,78,0.00,CLR,,0.00,WeatherDisplay:10.37,2013-06-06 14:45:00,
2013-06-06 09:00:00,85.9,77.4,29.83,NW,317,3.0,8.0,76,0.00,CLR,,0.00,WeatherDisplay:10.37,2013-06-06 15:00:00,
2013-06-06 09:15:00,85.2,77.2,29.83,NW,320,5.0,9.0,77,0.00,CLR,,0.00,WeatherDisplay:10.37,2013-06-06 15:15:00,
2013-06-06 09:30:00,85.2,76.8,29.83,NNW,327,3.0,8.0,76,0.00,CLR,,0.00,WeatherDisplay:10.37,2013-06-06 15:30:00,
2013-06-06 09:45:00,85.9,77.8,29.83,NW,316,5.0,9.0,77,0.00,CLR,,0.00,WeatherDisplay:10.37,2013-06-06 15:45:00,
2013-06-06 10:00:00,87.2,77.5,29.83,NW,314,6.0,8.0,73,0.00,CLR,,0.00,WeatherDisplay:10.37,2013-06-06 16:00:00,
2013-06-06 10:15:00,87.7,77.5,29.83,NW,316,5.0,9.0,72,0.00,CLR,,0.00,WeatherDisplay:10.37,2013-06-06 16:15:00,
2013-06-06 10:30:00,88.2,77.6,29.83,West,280,3.0,8.0,71,0.00,CLR,,0.00,WeatherDisplay:10.37,2013-06-06 16:30:00,
2013-06-06 10:45:00,89.0,77.5,29.82,NW,323,5.0,8.0,69,0.00,CLR,,0.00,WeatherDisplay:10.37,2013-06-06 16:45:00,
2013-06-06 11:00:00,88.8,77.7,29.82,NNW,331,3.0,6.0,70,0.00,CLR,,0.00,WeatherDisplay:10.37,2013-06-06 17:00:00,
2013-06-06 11:15:00,90.2,77.8,29.81,West,274,2.0,8.0,67,0.00,CLR,,0.00,WeatherDisplay:10.37,2013-06-06 17:15:00,
2013-06-06 11:30:00,89.7,78.6,29.81,SSE,157,1.0,5.0,70,0.00,CLR,,0.00,WeatherDisplay:10.37,2013-06-06 17:30:00,
2013-06-06 11:45:00,86.8,77.5,29.80,SE,126,3.0,6.0,74,0.00,CLR,,0.00,WeatherDisplay:10.37,2013-06-06 17:45:00,
2013-06-06 12:00:00,86.9,77.6,29.80,SE,128,2.0,6.0,74,0.00,CLR,,0.00,WeatherDisplay:10.37,2013-06-06 18:00:00,
2013-06-06 12:15:00,88.5,78.3,29.80,SSE,155,3.0,5.0,72,0.00,CLR,,0.00,WeatherDisplay:10.37,2013-06-06 18:15:00,
2013-06-06 12:30:00,88.2,78.4,29.79,SSE,156,3.0,6.0,73,0.00,CLR,,0.00,WeatherDisplay:10.37,2013-06-06 18:30:00,
2013-06-06 12:45:00,87.5,78.6,29.79,SSE,163,3.0,6.0,75,0.00,CLR,,0.00,WeatherDisplay:10.37,2013-06-06 18:45:00,
2013-06-06 13:00:00,88.0,78.7,29.78,SSE,156,3.0,5.0,74,0.00,CLR,,0.00,WeatherDisplay:10.37,2013-06-06 19:00:00,
2013-06-06 13:15:00,88.3,78.5,29.78,SSE,154,3.0,6.0,73,0.00,CLR,,0.00,WeatherDisplay:10.37,2013-06-06 19:15:00,
2013-06-06 13:30:00,87.9,78.5,29.77,SSE,153,5.0,6.0,74,0.00,CLR,,0.00,WeatherDisplay:10.37,2013-06-06 19:30:00,
2013-06-06 13:45:00,87.2,78.7,29.76,SE,135,3.0,6.0,76,0.00,CLR,,0.00,WeatherDisplay:10.37,2013-06-06 19:45:00,
2013-06-06 14:00:00,86.8,77.5,29.76,SE,130,3.0,6.0,74,0.00,CLR,,0.00,WeatherDisplay:10.37,2013-06-06 20:00:00,
2013-06-06 14:15:00,86.1,78.0,29.76,SE,126,5.0,6.0,77,0.00,CLR,,0.00,WeatherDisplay:10.37,2013-06-06 20:15:00,
2013-06-06 14:30:00,86.1,78.1,29.76,SE,124,5.0,7.0,77,0.00,CLR,,0.00,WeatherDisplay:10.37,2013-06-06 20:30:00,
2013-06-06 14:45:00,85.7,78.0,29.75,ESE,121,5.0,6.0,78,0.00,CLR,,0.00,WeatherDisplay:10.37,2013-06-06 20:45:00,
2013-06-06 15:00:00,85.9,77.5,29.75,ESE,117,3.0,6.0,76,0.00,CLR,,0.00,WeatherDisplay:10.37,2013-06-06 21:00:00,
2013-06-06 15:15:00,86.6,78.5,29.75,ESE,119,3.0,6.0,77,0.00,CLR,,0.00,WeatherDisplay:10.37,2013-06-06 21:15:00,
2013-06-06 15:30:00,86.8,78.3,29.75,ESE,112,7.0,9.0,76,0.00,CLR,,0.00,WeatherDisplay:10.37,2013-06-06 21:30:00,
2013-06-06 15:45:00,86.6,78.6,29.74,ESE,118,7.0,9.0,77,0.00,CLR,,0.00,WeatherDisplay:10.37,2013-06-06 21:45:00,
2013-06-06 16:00:00,85.9,78.6,29.74,ESE,105,5.0,9.0,79,0.00,CLR,,0.00,WeatherDisplay:10.37,2013-06-06 22:00:00,
2013-06-06 16:15:00,85.9,78.2,29.74,ESE,102,5.0,12.0,78,0.00,CLR,,0.00,WeatherDisplay:10.37,2013-06-06 22:15:00,
2013-06-06 16:26:00,86.1,78.0,29.74,ESE,110,6.0,10.0,77,0.00,CLR,,0.00,WeatherDisplay:10.37,2013-06-06 22:26:00,
2013-06-06 17:00:00,85.2,78.7,29.75,East,93,3.0,12.0,81,0.00,CLR,,0.00,WeatherDisplay:10.37,2013-06-06 23:00:00,
2013-06-06 17:15:00,84.8,78.3,29.75,East,98,5.0,13.0,81,0.00,CLR,,0.00,WeatherDisplay:10.37,2013-06-06 23:15:00,
2013-06-06 17:30:00,84.5,78.0,29.75,East,94,7.0,14.0,81,0.00,CLR,,0.00,WeatherDisplay:10.37,2013-06-06 23:30:00,
2013-06-06 17:45:00,84.3,78.6,29.75,East,86,8.0,13.0,83,0.00,CLR,,0.00,WeatherDisplay:10.37,2013-06-06 23:45:00,
2013-06-06 18:00:00,84.3,78.9,29.75,ESE,111,3.0,12.0,84,0.00,CLR,,0.00,WeatherDisplay:10.37,2013-06-07 00:00:00,
2013-06-06 18:15:00,84.1,78.7,29.75,East,99,7.0,12.0,84,0.00,CLR,,0.00,WeatherDisplay:10.37,2013-06-07 00:15:00,
2013-06-06 18:30:00,83.9,78.5,29.76,East,98,7.0,13.0,84,0.00,CLR,,0.00,WeatherDisplay:10.37,2013-06-07 00:30:00,
2013-06-06 18:45:00,84.1,78.7,29.77,East,93,7.0,12.0,84,0.00,CLR,,0.00,WeatherDisplay:10.37,2013-06-07 00:45:00,
2013-06-06 19:00:00,84.0,78.3,29.77,ESE,115,10.0,14.0,83,0.00,CLR,,0.00,WeatherDisplay:10.37,2013-06-07 01:00:00,
2013-06-06 19:15:00,84.1,78.8,29.78,East,88,8.0,13.0,84,0.00,CLR,,0.00,WeatherDisplay:10.37,2013-06-07 01:15:00,
2013-06-06 19:30:00,84.1,79.1,29.78,East,95,7.0,13.0,85,0.00,CLR,,0.00,WeatherDisplay:10.37,2013-06-07 01:30:00,
2013-06-06 19:45:00,84.0,79.4,29.78,East,99,3.0,13.0,86,0.00,CLR,,0.00,WeatherDisplay:10.37,2013-06-07 01:45:00,
2013-06-06 20:00:00,83.8,79.5,29.79,East,85,9.0,13.0,87,0.00,CLR,,0.00,WeatherDisplay:10.37,2013-06-07 02:00:00,
2013-06-06 20:15:00,83.7,80.1,29.79,East,90,8.0,13.0,89,0.00,CLR,,0.00,WeatherDisplay:10.37,2013-06-07 02:15:00,
2013-06-06 20:30:00,83.5,79.9,29.80,East,100,12.0,14.0,89,0.00,CLR,,0.00,WeatherDisplay:10.37,2013-06-07 02:30:00,
2013-06-06 20:45:00,83.7,80.4,29.80,East,94,6.0,15.0,90,0.00,CLR,,0.00,WeatherDisplay:10.37,2013-06-07 02:45:00,
2013-06-06 21:00:00,83.6,80.0,29.82,East,89,6.0,14.0,89,0.00,CLR,,0.00,WeatherDisplay:10.37,2013-06-07 03:00:00,
2013-06-06 21:15:00,83.7,80.1,29.82,East,94,7.0,13.0,89,0.00,CLR,,0.00,WeatherDisplay:10.37,2013-06-07 03:15:00,
2013-06-06 21:30:00,83.8,80.2,29.83,ESE,107,5.0,14.0,89,0.00,CLR,,0.00,WeatherDisplay:10.37,2013-06-07 03:30:00,
2013-06-06 21:45:00,83.9,80.3,29.83,East,100,9.0,13.0,89,0.00,CLR,,0.00,WeatherDisplay:10.37,2013-06-07 03:45:00,
2013-06-06 22:00:00,83.8,80.6,29.83,ESE,108,12.0,15.0,90,0.00,CLR,,0.00,WeatherDisplay:10.37,2013-06-07 04:00:00,
2013-06-06 22:15:00,83.7,80.5,29.84,ESE,113,13.0,15.0,90,0.00,CLR,,0.00,WeatherDisplay:10.37,2013-06-07 04:15:00,
2013-06-06 22:30:00,83.6,80.4,29.84,ESE,112,12.0,14.0,90,0.00,CLR,,0.00,WeatherDisplay:10.37,2013-06-07 04:30:00,
2013-06-06 22:45:00,83.6,80.4,29.84,ESE,114,12.0,14.0,90,0.00,CLR,,0.00,WeatherDisplay:10.37,2013-06-07 04:45:00,
2013-06-06 23:00:00,83.6,80.4,29.83,ESE,115,12.0,14.0,90,0.00,CLR,,0.00,WeatherDisplay:10.37,2013-06-07 05:00:00,
2013-06-06 23:15:00,83.6,80.7,29.83,ESE,115,12.0,13.0,91,0.00,CLR,,0.00,WeatherDisplay:10.37,2013-06-07 05:15:00,
2013-06-06 23:30:00,83.6,80.7,29.83,ESE,120,8.0,13.0,91,0.00,CLR,,0.00,WeatherDisplay:10.37,2013-06-07 05:30:00,
2013-06-06 23:45:00,83.5,80.3,29.82,ESE,123,9.0,13.0,90,0.00,CLR,,0.00,WeatherDisplay:10.37,2013-06-07 05:45:00,